createdAt,value
2018-12-05T00:01:08.599Z,4.10
2018-12-05T00:03:36.117Z,3.80
2018-12-05T00:06:03.673Z,4.03
2018-12-05T00:08:31.211Z,4.00
2018-12-05T00:10:58.749Z,4.30
2018-12-05T00:13:26.257Z,4.70
2018-12-05T00:15:53.788Z,5.07
2018-12-05T00:18:21.281Z,4.87
2018-12-05T00:20:48.859Z,5.87
2018-12-05T00:23:16.457Z,6.30
2018-12-05T00:25:43.951Z,6.43
2018-12-05T00:28:12.416Z,5.90
2018-12-05T00:30:39.945Z,5.73
2018-12-05T00:33:07.468Z,5.33
2018-12-05T00:35:35.009Z,6.27
2018-12-05T00:38:02.525Z,6.93
2018-12-05T00:40:30.160Z,6.93
2018-12-05T00:42:57.725Z,7.70
2018-12-05T00:45:25.295Z,7.70
2018-12-05T00:47:52.787Z,8.10
2018-12-05T00:50:20.351Z,8.33
2018-12-05T00:52:47.902Z,8.20
2018-12-05T00:55:15.573Z,8.03
2018-12-05T00:57:43.510Z,7.93
2018-12-05T01:00:11.108Z,8.00
2018-12-05T01:02:38.647Z,7.07
2018-12-05T01:05:07.864Z,7.13
2018-12-05T01:07:35.631Z,7.63
2018-12-05T01:10:04.637Z,8.23
2018-12-05T01:12:32.157Z,8.93
2018-12-05T01:14:59.679Z,8.50
2018-12-05T01:17:27.241Z,8.40
2018-12-05T01:19:54.792Z,8.13
2018-12-05T01:22:22.343Z,8.80
2018-12-05T01:24:49.851Z,8.77
2018-12-05T01:27:17.463Z,9.40
2018-12-05T01:29:45.007Z,8.47
2018-12-05T01:32:12.503Z,8.67
2018-12-05T01:34:40.065Z,8.43
2018-12-05T01:37:07.639Z,9.10
2018-12-05T01:39:35.155Z,7.80
2018-12-05T01:42:02.760Z,9.43
2018-12-05T01:44:30.273Z,9.77
2018-12-05T01:46:57.778Z,9.37
2018-12-05T01:49:25.273Z,9.83
2018-12-05T01:51:52.768Z,9.03
2018-12-05T01:54:20.393Z,9.53
2018-12-05T01:56:47.903Z,9.97
2018-12-05T01:59:16.390Z,9.20
2018-12-05T02:01:43.916Z,8.10
2018-12-05T02:04:11.518Z,8.53
2018-12-05T02:06:39.473Z,8.70
2018-12-05T02:09:07.330Z,8.80
2018-12-05T02:11:34.825Z,8.47
2018-12-05T02:14:02.528Z,8.77
2018-12-05T02:16:30.048Z,9.53
2018-12-05T02:18:57.622Z,8.77
2018-12-05T02:21:25.147Z,9.03
2018-12-05T02:23:52.700Z,8.20
2018-12-05T02:26:20.242Z,9.77
2018-12-05T02:28:47.784Z,8.60
2018-12-05T02:31:15.320Z,7.50
2018-12-05T02:33:42.867Z,8.23
2018-12-05T02:36:10.399Z,8.57
2018-12-05T02:38:37.921Z,8.63
2018-12-05T02:41:05.422Z,8.03
2018-12-05T02:43:32.905Z,8.30
2018-12-05T02:46:00.482Z,7.63
2018-12-05T02:48:28.032Z,8.33
2018-12-05T02:50:55.753Z,8.57
2018-12-05T02:53:23.263Z,7.70
2018-12-05T02:55:50.861Z,9.57
2018-12-05T02:58:18.377Z,8.93
2018-12-05T03:00:45.909Z,7.23
2018-12-05T03:03:13.443Z,8.17
2018-12-05T03:05:41.074Z,8.30
2018-12-05T03:08:08.825Z,8.30
2018-12-05T03:10:36.415Z,8.80
2018-12-05T03:13:04.051Z,8.23
2018-12-05T03:15:31.560Z,8.57
2018-12-05T03:17:59.048Z,8.67
2018-12-05T03:20:26.556Z,9.87
2018-12-05T03:22:54.083Z,8.37
2018-12-05T03:25:21.604Z,9.67
2018-12-05T03:27:49.586Z,8.58
2018-12-05T03:30:17.094Z,9.50
2018-12-05T03:32:44.617Z,9.50
2018-12-05T03:35:12.155Z,9.43
2018-12-05T03:37:39.652Z,8.93
2018-12-05T03:40:07.411Z,8.50
2018-12-05T03:42:35.009Z,9.50
2018-12-05T03:45:02.569Z,9.57
2018-12-05T03:47:30.123Z,9.57
2018-12-05T03:50:01.816Z,9.30
2018-12-05T03:52:29.815Z,8.47
2018-12-05T03:54:57.312Z,8.13
2018-12-05T03:57:24.838Z,9.73
2018-12-05T03:59:52.389Z,9.17
2018-12-05T04:02:21.173Z,9.73
2018-12-05T04:04:48.772Z,8.57
2018-12-05T04:07:16.319Z,8.40
2018-12-05T04:09:45.147Z,9.87
2018-12-05T04:12:12.909Z,9.67
2018-12-05T04:14:40.433Z,8.17
2018-12-05T04:17:07.982Z,8.50
2018-12-05T04:19:35.584Z,8.77
2018-12-05T04:22:03.158Z,9.20
2018-12-05T04:24:30.690Z,9.53
2018-12-05T04:26:58.206Z,10.40
2018-12-05T04:29:25.726Z,9.70
2018-12-05T04:31:53.255Z,9.80
2018-12-05T04:34:20.840Z,11.70
2018-12-05T04:36:48.462Z,11.20
2018-12-05T04:39:16.542Z,10.77
2018-12-05T04:41:44.126Z,12.13
2018-12-05T04:44:11.695Z,10.77
2018-12-05T04:46:39.214Z,11.43
2018-12-05T04:49:06.728Z,12.27
2018-12-05T04:51:34.223Z,13.20
2018-12-05T04:54:01.769Z,11.03
2018-12-05T04:56:29.294Z,12.87
2018-12-05T04:58:56.834Z,12.27
2018-12-05T05:01:24.382Z,11.93
2018-12-05T05:03:51.906Z,13.43
2018-12-05T05:06:19.420Z,12.67
2018-12-05T05:08:46.912Z,11.67
2018-12-05T05:11:14.450Z,13.00
2018-12-05T05:13:42.018Z,13.73
2018-12-05T05:16:09.525Z,13.08
2018-12-05T05:18:37.016Z,13.43
2018-12-05T05:21:04.548Z,14.33
2018-12-05T05:23:32.086Z,13.27
2018-12-05T05:25:59.606Z,14.60
2018-12-05T05:28:27.124Z,13.67
2018-12-05T05:30:55.355Z,14.77
2018-12-05T05:33:22.859Z,14.10
2018-12-05T05:35:50.384Z,13.33
2018-12-05T05:38:17.886Z,14.27
2018-12-05T05:40:46.418Z,13.37
2018-12-05T05:43:13.934Z,14.95
2018-12-05T05:45:41.446Z,13.80
2018-12-05T05:48:09.004Z,14.23
2018-12-05T05:50:36.530Z,13.33
2018-12-05T05:53:04.210Z,13.60
2018-12-05T05:55:31.721Z,14.27
2018-12-05T05:57:59.286Z,14.17
2018-12-05T06:00:27.760Z,14.13
2018-12-05T06:02:55.255Z,14.63
2018-12-05T06:05:22.763Z,14.17
2018-12-05T06:07:50.755Z,13.93
2018-12-05T06:10:18.281Z,13.40
2018-12-05T06:12:45.819Z,13.20
2018-12-05T06:15:13.364Z,12.23
2018-12-05T06:17:41.007Z,13.33
2018-12-05T06:20:08.554Z,15.60
2018-12-05T06:22:36.093Z,15.07
2018-12-05T06:25:05.154Z,13.47
2018-12-05T06:27:32.806Z,15.23
2018-12-05T06:30:00.491Z,14.53
2018-12-05T06:32:28.053Z,14.00
2018-12-05T06:34:55.566Z,14.73
2018-12-05T06:37:23.080Z,13.87
2018-12-05T06:39:50.581Z,12.63
2018-12-05T06:42:18.080Z,13.67
2018-12-05T06:44:45.637Z,14.80
2018-12-05T06:47:13.173Z,11.57
2018-12-05T06:49:40.780Z,13.90
2018-12-05T06:52:08.291Z,14.60
2018-12-05T06:54:35.789Z,16.10
2018-12-05T06:57:03.383Z,12.90
2018-12-05T06:59:30.873Z,13.97
2018-12-05T07:01:58.360Z,14.60
2018-12-05T07:04:25.879Z,14.50
2018-12-05T07:06:53.379Z,15.80
2018-12-05T07:09:20.907Z,14.53
2018-12-05T07:11:48.411Z,15.60
2018-12-05T07:14:15.959Z,15.90
2018-12-05T07:16:43.469Z,13.40
2018-12-05T07:19:10.957Z,15.10
2018-12-05T07:21:39.277Z,15.80
2018-12-05T07:24:09.002Z,13.60
2018-12-05T07:26:36.799Z,13.73
2018-12-05T07:29:04.653Z,15.33
2018-12-05T07:31:32.149Z,15.53
2018-12-05T07:33:59.679Z,17.57
2018-12-05T07:36:27.979Z,16.40
2018-12-05T07:38:56.489Z,17.20
2018-12-05T07:41:24.101Z,15.77
2018-12-05T07:43:51.640Z,16.13
2018-12-05T07:46:19.151Z,18.97
2018-12-05T07:48:46.711Z,15.70
2018-12-05T07:51:14.255Z,15.30
2018-12-05T07:53:41.756Z,15.57
2018-12-05T07:56:09.243Z,15.00
2018-12-05T07:58:36.794Z,16.47
2018-12-05T08:01:04.337Z,16.30
2018-12-05T08:03:31.875Z,14.00
2018-12-05T08:05:59.465Z,13.67
2018-12-05T08:08:26.963Z,15.80
2018-12-05T08:10:54.474Z,15.33
2018-12-05T08:13:22.094Z,16.90
2018-12-05T08:15:49.612Z,13.30
2018-12-05T08:18:17.131Z,14.60
2018-12-05T08:20:44.651Z,16.13
2018-12-05T08:23:12.262Z,15.53
2018-12-05T08:25:40.882Z,15.23
2018-12-05T08:28:08.686Z,15.60
2018-12-05T08:30:36.209Z,15.90
2018-12-05T08:33:04.355Z,15.55
2018-12-05T08:35:31.866Z,14.00
2018-12-05T08:38:00.481Z,16.67
2018-12-05T08:40:28.324Z,16.27
2018-12-05T08:42:55.858Z,17.87
2018-12-05T08:45:23.446Z,16.13
2018-12-05T08:47:50.938Z,17.17
2018-12-05T08:50:18.480Z,17.20
2018-12-05T08:52:46.043Z,16.03
2018-12-05T08:55:14.177Z,15.80
2018-12-05T08:57:41.680Z,16.70
2018-12-05T09:00:09.284Z,16.97
2018-12-05T09:02:36.792Z,16.27
2018-12-05T09:05:05.530Z,18.13
2018-12-05T09:07:33.042Z,16.37
2018-12-05T09:10:00.594Z,16.77
2018-12-05T09:12:28.265Z,15.00
2018-12-05T09:14:55.792Z,17.00
2018-12-05T09:17:23.395Z,17.27
2018-12-05T09:19:50.946Z,15.93
2018-12-05T09:22:18.620Z,16.42
2018-12-05T09:24:46.156Z,14.50
2018-12-05T09:27:13.670Z,14.70
2018-12-05T09:29:41.230Z,15.83
2018-12-05T09:32:08.823Z,16.03
2018-12-05T09:34:36.980Z,16.77
2018-12-05T09:37:04.508Z,15.90
2018-12-05T09:39:32.018Z,16.10
2018-12-05T09:41:59.684Z,15.23
2018-12-05T09:44:27.272Z,14.27
2018-12-05T09:46:54.789Z,16.53
2018-12-05T09:49:22.330Z,15.93
2018-12-05T09:51:49.874Z,15.60
2018-12-05T09:54:17.404Z,16.30
2018-12-05T09:56:44.946Z,16.07
2018-12-05T09:59:12.460Z,16.73
2018-12-05T10:01:40.007Z,14.80
2018-12-05T10:04:08.213Z,18.00
2018-12-05T10:06:35.714Z,15.90
2018-12-05T10:09:05.022Z,17.80
2018-12-05T10:11:32.575Z,16.67
2018-12-05T10:14:00.101Z,17.30
2018-12-05T10:16:27.646Z,17.13
2018-12-05T10:18:55.166Z,18.20
2018-12-05T10:21:22.734Z,16.97
2018-12-05T10:23:50.274Z,17.47
2018-12-05T10:26:17.854Z,19.00
2018-12-05T10:28:45.362Z,18.87
2018-12-05T10:31:12.891Z,17.50
2018-12-05T10:33:40.440Z,16.60
2018-12-05T10:36:07.961Z,17.30
2018-12-05T10:38:35.479Z,17.73
2018-12-05T10:41:03.008Z,17.90
2018-12-05T10:43:30.574Z,18.07
2018-12-05T10:45:58.251Z,18.50
2018-12-05T10:48:25.745Z,17.63
2018-12-05T10:50:53.289Z,17.23
2018-12-05T10:53:20.853Z,18.37
2018-12-05T10:55:48.424Z,16.00
2018-12-05T10:58:15.955Z,17.93
2018-12-05T11:00:49.253Z,17.97
2018-12-05T11:03:18.735Z,16.73
2018-12-05T11:05:51.943Z,16.93
2018-12-05T11:08:19.619Z,18.07
2018-12-05T11:10:52.824Z,16.07
2018-12-05T11:13:25.929Z,16.87
2018-12-05T11:15:59.150Z,16.37
2018-12-05T11:18:32.944Z,15.97
2018-12-05T11:24:11.055Z,14.13
2018-12-05T11:26:38.820Z,15.17
2018-12-05T11:29:06.497Z,14.60
2018-12-05T11:31:34.044Z,14.50
2018-12-05T11:34:01.620Z,14.33
2018-12-05T11:36:29.144Z,15.60
2018-12-05T11:38:56.713Z,14.10
2018-12-05T11:41:24.209Z,14.70
2018-12-05T11:43:51.701Z,13.93
2018-12-05T11:46:19.275Z,14.40
2018-12-05T11:48:46.863Z,13.40
2018-12-05T11:51:14.391Z,14.70
2018-12-05T11:53:42.794Z,13.57
2018-12-05T11:56:10.324Z,14.00
2018-12-05T11:58:37.865Z,13.17
2018-12-05T12:01:05.539Z,12.23
2018-12-05T12:03:33.120Z,12.33
2018-12-05T12:06:00.657Z,12.97
2018-12-05T12:08:28.142Z,12.63
2018-12-05T12:10:55.670Z,11.57
2018-12-05T12:13:23.244Z,12.70
2018-12-05T12:15:50.783Z,12.87
2018-12-05T12:18:18.454Z,12.80
2018-12-05T12:20:45.975Z,13.57
2018-12-05T12:23:13.966Z,12.80
2018-12-05T12:25:41.496Z,13.37
2018-12-05T12:28:09.097Z,12.07
2018-12-05T12:30:36.625Z,12.43
2018-12-05T12:33:04.279Z,12.57
2018-12-05T12:35:32.276Z,13.40
2018-12-05T12:37:59.791Z,11.67
2018-12-05T12:40:28.097Z,12.50
2018-12-05T12:42:55.680Z,11.90
2018-12-05T12:45:23.223Z,11.50
2018-12-05T12:47:50.772Z,11.77
2018-12-05T12:50:18.278Z,11.63
2018-12-05T12:52:46.693Z,11.50
2018-12-05T12:55:15.129Z,10.93
2018-12-05T12:57:42.649Z,10.77
2018-12-05T13:00:10.470Z,11.27
2018-12-05T13:02:38.001Z,11.13
2018-12-05T13:05:05.578Z,10.40
2018-12-05T13:07:33.101Z,10.13
2018-12-05T13:10:00.663Z,9.47
2018-12-05T13:12:30.179Z,9.33
2018-12-05T13:14:57.709Z,9.47
2018-12-05T13:17:25.224Z,9.03
2018-12-05T13:19:52.799Z,8.90
2018-12-05T13:22:20.620Z,8.73
2018-12-05T13:24:48.250Z,9.20
2018-12-05T13:27:16.540Z,9.00
2018-12-05T13:29:44.062Z,9.83
2018-12-05T13:32:11.632Z,9.10
2018-12-05T13:34:39.116Z,9.53
2018-12-05T13:37:06.716Z,9.47
2018-12-05T13:39:34.246Z,8.90
2018-12-05T13:42:01.851Z,9.27
2018-12-05T13:44:29.360Z,9.07
2018-12-05T13:46:56.966Z,9.20
2018-12-05T13:49:24.566Z,9.60
2018-12-05T13:51:52.156Z,8.93
2018-12-05T13:54:19.805Z,9.70
2018-12-05T13:56:47.898Z,11.13
2018-12-05T13:59:15.416Z,10.10
2018-12-05T14:01:42.959Z,9.57
2018-12-05T14:04:10.494Z,9.93
2018-12-05T14:06:38.086Z,9.33
2018-12-05T14:09:06.377Z,10.17
2018-12-05T14:11:33.866Z,10.63
2018-12-05T14:14:01.505Z,10.23
2018-12-05T14:16:29.409Z,9.30
2018-12-05T14:18:57.022Z,10.17
2018-12-05T14:21:25.031Z,10.60
2018-12-05T14:23:52.547Z,9.80
2018-12-05T14:26:20.039Z,9.73
2018-12-05T14:28:47.595Z,10.97
2018-12-05T14:31:15.157Z,10.33
2018-12-05T14:33:42.751Z,11.23
2018-12-05T14:36:10.295Z,10.70
2018-12-05T14:38:38.270Z,11.67
2018-12-05T14:41:05.819Z,11.60
2018-12-05T14:43:33.410Z,15.13
2018-12-05T14:46:00.947Z,11.90
2018-12-05T14:48:28.456Z,11.57
2018-12-05T14:50:56.008Z,11.57
2018-12-05T14:53:23.506Z,10.97
2018-12-05T14:55:51.016Z,11.57
2018-12-05T14:58:18.615Z,10.90
2018-12-05T15:00:46.262Z,10.53
2018-12-05T15:03:14.079Z,11.40
2018-12-05T15:05:41.599Z,11.20
2018-12-05T15:08:09.122Z,11.47
2018-12-05T15:10:36.673Z,10.90
2018-12-05T15:13:04.243Z,10.83
2018-12-05T15:15:31.912Z,10.80
2018-12-05T15:17:59.432Z,10.20
2018-12-05T15:20:26.967Z,9.70
2018-12-05T15:22:54.539Z,10.13
2018-12-05T15:25:22.119Z,10.43
2018-12-05T15:27:49.673Z,9.80
2018-12-05T15:30:17.190Z,10.40
2018-12-05T15:32:44.707Z,10.57
2018-12-05T15:35:12.275Z,9.00
2018-12-05T15:37:39.872Z,11.10
2018-12-05T15:40:07.551Z,10.63
2018-12-05T15:42:35.792Z,9.97
2018-12-05T15:45:04.588Z,10.97
2018-12-05T15:47:32.101Z,10.60
2018-12-05T15:49:59.632Z,10.90
2018-12-05T15:52:27.139Z,10.67
2018-12-05T15:54:54.677Z,10.50
2018-12-05T15:57:22.758Z,10.53
2018-12-05T15:59:50.299Z,10.27
2018-12-05T16:02:17.782Z,9.50
2018-12-05T16:04:45.311Z,9.60
2018-12-05T16:07:12.839Z,10.10
2018-12-05T16:09:40.415Z,11.60
2018-12-05T16:12:07.971Z,10.70
2018-12-05T16:14:35.467Z,10.67
2018-12-05T16:17:03.005Z,10.03
2018-12-05T16:19:30.570Z,10.33
2018-12-05T16:21:58.081Z,9.47
2018-12-05T16:24:25.645Z,9.83
2018-12-05T16:26:54.101Z,8.93
2018-12-05T16:29:21.641Z,8.60
2018-12-05T16:31:49.171Z,8.60
2018-12-05T16:34:16.727Z,9.23
2018-12-05T16:36:44.396Z,9.27
2018-12-05T16:39:12.085Z,9.43
2018-12-05T16:41:39.605Z,9.88
2018-12-05T16:44:12.889Z,9.50
2018-12-05T16:46:36.652Z,9.73
2018-12-05T16:49:04.230Z,9.80
2018-12-05T16:51:31.784Z,9.50
2018-12-05T16:53:59.303Z,9.33
2018-12-05T16:56:26.844Z,9.50
2018-12-05T16:58:54.366Z,8.60
2018-12-05T17:01:22.768Z,8.03
2018-12-05T17:03:50.341Z,8.93
2018-12-05T17:06:17.894Z,8.77
2018-12-05T17:08:45.427Z,7.33
2018-12-05T17:11:13.040Z,8.37
2018-12-05T17:13:41.409Z,7.87
2018-12-05T17:16:08.962Z,7.40
2018-12-05T17:18:36.644Z,7.30
2018-12-05T17:21:04.252Z,7.03
2018-12-05T17:23:31.773Z,7.77
2018-12-05T17:25:59.315Z,7.57
2018-12-05T17:28:28.193Z,7.40
2018-12-05T17:30:56.561Z,6.47
2018-12-05T17:33:24.348Z,7.37
2018-12-05T17:35:51.976Z,6.63
2018-12-05T17:38:19.578Z,7.47
2018-12-05T17:40:47.146Z,6.10
2018-12-05T17:43:14.670Z,8.27
2018-12-05T17:45:42.218Z,6.33
2018-12-05T17:48:09.762Z,6.23
2018-12-05T17:50:37.992Z,6.87
2018-12-05T17:53:06.026Z,7.73
2018-12-05T17:55:33.558Z,6.67
2018-12-05T17:58:01.082Z,5.27
2018-12-05T18:00:29.216Z,5.63
2018-12-05T18:02:56.750Z,6.40
2018-12-05T18:05:24.286Z,6.73
2018-12-05T18:07:51.826Z,6.27
2018-12-05T18:10:19.381Z,6.83
2018-12-05T18:12:46.902Z,5.90
2018-12-05T18:15:15.016Z,6.40
2018-12-05T18:17:43.388Z,6.63
2018-12-05T18:20:11.340Z,6.40
2018-12-05T18:22:38.910Z,7.00
2018-12-05T18:25:06.544Z,5.57
2018-12-05T18:27:34.180Z,5.50
2018-12-05T18:30:01.850Z,5.23
2018-12-05T18:32:30.305Z,6.07
2018-12-05T18:34:57.898Z,5.83
2018-12-05T18:37:25.418Z,5.20
2018-12-05T18:39:53.807Z,5.77
2018-12-05T18:42:22.956Z,6.20
2018-12-05T18:44:50.484Z,5.47
2018-12-05T18:47:19.586Z,5.17
2018-12-05T18:49:47.402Z,5.17
2018-12-05T18:52:15.058Z,4.93
2018-12-05T18:54:42.623Z,4.87
2018-12-05T18:57:11.313Z,5.77
2018-12-05T18:59:38.904Z,5.13
2018-12-05T19:02:08.239Z,5.00
2018-12-05T19:04:35.789Z,5.47
2018-12-05T19:07:03.727Z,4.63
2018-12-05T19:09:31.731Z,5.20
2018-12-05T19:11:59.686Z,4.97
2018-12-05T19:14:32.950Z,5.00
2018-12-05T19:17:01.839Z,4.43
2018-12-05T19:19:30.215Z,5.00
2018-12-05T19:21:57.738Z,4.77
2018-12-05T19:24:25.246Z,4.30
2018-12-05T19:26:52.825Z,4.73
2018-12-05T19:29:20.369Z,4.20
2018-12-05T19:31:49.749Z,3.93
2018-12-05T19:34:17.288Z,4.13
2018-12-05T19:36:45.787Z,4.50
2018-12-05T19:39:14.274Z,4.23
2018-12-05T19:41:41.804Z,4.70
2018-12-05T19:44:11.290Z,3.90
2018-12-05T19:46:38.854Z,3.97
2018-12-05T19:49:06.543Z,4.47
2018-12-05T19:51:34.101Z,4.30
2018-12-05T19:54:03.584Z,4.17
2018-12-05T19:56:31.859Z,4.67
2018-12-05T19:58:59.429Z,4.80
2018-12-05T20:01:26.978Z,4.03
2018-12-05T20:03:55.326Z,4.60
2018-12-05T20:06:23.017Z,5.27
2018-12-05T20:08:50.550Z,5.50
2018-12-05T20:11:19.351Z,5.33
2018-12-05T20:13:47.727Z,4.27
2018-12-05T20:16:15.262Z,4.20
2018-12-05T20:18:42.775Z,5.27
2018-12-05T20:21:12.039Z,4.22
2018-12-05T20:23:40.931Z,5.23
2018-12-05T20:26:08.529Z,5.00
2018-12-05T20:28:36.067Z,4.60
2018-12-05T20:31:04.191Z,5.50
2018-12-05T20:33:31.704Z,4.17
2018-12-05T20:35:59.310Z,4.23
2018-12-05T20:38:26.865Z,4.10
2018-12-05T20:40:54.510Z,4.43
2018-12-05T20:43:22.270Z,5.17
2018-12-05T20:45:49.850Z,4.37
2018-12-05T20:48:17.395Z,5.07
2018-12-05T20:50:45.020Z,4.70
2018-12-05T20:53:12.582Z,5.17
2018-12-05T20:55:40.088Z,5.10
2018-12-05T20:58:07.758Z,5.10
2018-12-05T21:00:36.206Z,4.00
2018-12-05T21:03:03.893Z,4.33
2018-12-05T21:05:31.448Z,4.00
2018-12-05T21:07:58.974Z,4.23
2018-12-05T21:10:26.502Z,4.10
2018-12-05T21:12:54.055Z,4.33
2018-12-05T21:15:21.634Z,4.47
2018-12-05T21:17:49.184Z,4.53
2018-12-05T21:20:16.848Z,4.67
2018-12-05T21:22:47.208Z,4.53
2018-12-05T21:25:14.073Z,5.53
2018-12-05T21:27:41.608Z,4.30
2018-12-05T21:30:09.211Z,5.10
2018-12-05T21:32:37.553Z,4.13
2018-12-05T21:35:05.136Z,4.43
2018-12-05T21:37:32.684Z,4.93
2018-12-05T21:40:00.247Z,4.23
2018-12-05T21:42:27.782Z,4.70
2018-12-05T21:44:55.289Z,5.03
2018-12-05T21:47:23.069Z,4.45
2018-12-05T21:49:50.681Z,5.27
2018-12-05T21:52:18.252Z,4.60
2018-12-05T21:54:45.812Z,5.60
2018-12-05T21:57:14.268Z,5.03
2018-12-05T21:59:41.784Z,5.43
2018-12-05T22:02:09.356Z,5.67
2018-12-05T22:04:36.888Z,5.87
2018-12-05T22:07:04.394Z,5.10
2018-12-05T22:09:31.938Z,5.47
2018-12-05T22:11:59.454Z,5.33
2018-12-05T22:14:27.085Z,5.33
2018-12-05T22:16:54.706Z,5.50
2018-12-05T22:19:22.303Z,5.90
2018-12-05T22:21:49.857Z,5.27
2018-12-05T22:24:17.374Z,4.80
2018-12-05T22:26:44.918Z,5.60
2018-12-05T22:29:12.432Z,4.27
2018-12-05T22:31:39.958Z,5.30
2018-12-05T22:34:07.562Z,4.60
2018-12-05T22:36:35.123Z,4.83
2018-12-05T22:39:02.755Z,5.77
2018-12-05T22:41:30.364Z,5.67
2018-12-05T22:43:57.878Z,5.27
2018-12-05T22:46:25.468Z,5.60
2018-12-05T22:48:52.986Z,6.13
2018-12-05T22:51:20.508Z,5.50
2018-12-05T22:53:48.038Z,5.22
2018-12-05T22:56:15.596Z,5.63
2018-12-05T22:58:43.122Z,5.17
2018-12-05T23:01:10.682Z,5.30
2018-12-05T23:03:38.582Z,5.53
2018-12-05T23:06:06.154Z,5.57
2018-12-05T23:08:33.650Z,5.90
2018-12-05T23:11:01.212Z,5.47
2018-12-05T23:13:29.441Z,4.90
2018-12-05T23:15:56.931Z,4.97
2018-12-05T23:18:24.476Z,5.53
2018-12-05T23:20:52.083Z,5.50
2018-12-05T23:23:19.609Z,5.87
2018-12-05T23:25:47.190Z,5.67
2018-12-05T23:28:14.793Z,5.63
2018-12-05T23:30:42.426Z,5.73
2018-12-05T23:33:09.973Z,5.30
2018-12-05T23:35:37.570Z,5.63
2018-12-05T23:38:05.106Z,5.30
2018-12-05T23:40:32.700Z,5.53
2018-12-05T23:43:00.262Z,5.67
2018-12-05T23:45:27.848Z,5.40
2018-12-05T23:47:55.390Z,5.90
2018-12-05T23:50:22.939Z,4.97
2018-12-05T23:52:50.480Z,5.63
2018-12-05T23:55:18.043Z,5.37
2018-12-05T23:57:45.534Z,4.90
